Flight Track Log - Related Links

Times and Time Zones

All times are in EDT time to prevent confusion due to time zone crossing. See the WIG7117 flight status page for this flight to view local times or setup timezone preferences in your user account.

Time Position Orientation Groundspeed Altitude Reporting Facility
EDT Latitude Longitude Course Direction KTS MPH feet Rate Location/Type
Fri 09:57:15 PM 42.7422 -73.8058 178° South 88 101 1,000  Level Boston Center
Fri 09:57:40 PM 42.7317 -73.8053 178° South 89 102 1,400 1,244 Climbing Boston Center
Fri 09:58:37 PM 42.7206 -73.8306 239° Southwest 131 151 2,700 1,317 Climbing Boston Center
Fri 09:59:02 PM 42.7256 -73.8492 290° West 128 147 3,200 1,180 Climbing Boston Center
Fri 09:59:38 PM 42.7292 -73.8772 280° West 120 138 3,900 1,100 Climbing Boston Center
Fri 10:00:02 PM 42.7331 -73.8897 293° West 116 133 4,300 938 Climbing Boston Center
Fri 10:00:42 PM 42.7356 -73.9114 279° West 96 110 4,900 968 Climbing Boston Center
Fri 10:01:04 PM 42.7392 -73.9247 290° West 101 116 5,300 1,034 Climbing Boston Center
Fri 10:01:40 PM 42.7422 -73.9458 281° West 90 104 5,900 1,000 Climbing Boston Center
Fri 10:02:04 PM 42.7450 -73.9586 286° West 95 109 6,300 968 Climbing Boston Center
Fri 10:02:42 PM 42.7486 -73.9800 283° West 94 108 6,900 857 Climbing Boston Center
Fri 10:03:07 PM 42.7519 -73.9919 291° West 94 108 7,200 885 Climbing Boston Center
Fri 10:03:43 PM 42.7547 -74.0172 279° West 101 116 7,800 900 Climbing Boston Center
Fri 10:04:07 PM 42.7589 -74.0314 292° West 106 122 8,100 295 Climbing Boston Center
Fri 10:04:44 PM 42.7639 -74.0611 283° West 117 135 8,100  Level Boston Center
Fri 10:05:08 PM 42.7678 -74.0797 286° West 129 148 8,100  Level Boston Center
Fri 10:05:45 PM 42.7733 -74.1139 283° West 149 171 8,100  Level Boston Center
Fri 10:06:09 PM 42.7792 -74.1372 289° West 144 166 8,100  Level Boston Center
Fri 10:06:43 PM 42.7847 -74.1675 284° West 150 173 8,100  Level Boston Center
Fri 10:07:07 PM 42.7889 -74.1914 283° West 146 168 8,100  Level Boston Center
Fri 10:07:47 PM 42.7933 -74.2258 280° West 147 169 8,100  Level Boston Center
Fri 10:08:09 PM 42.7983 -74.2450 290° West 146 168 8,100  Level Boston Center
Fri 10:08:47 PM 42.8025 -74.2786 280° West 144 166 8,100  Level Boston Center
Fri 10:09:11 PM 42.8072 -74.2969 289° West 143 165 8,100  Level Boston Center
Fri 10:09:42 PM 42.8117 -74.3228 283° West 141 162 8,100  Level Boston Center
Fri 10:10:12 PM 42.8161 -74.3494 283° West 143 165 8,100 -136 Level Boston Center
Fri 10:10:26 PM 42.8181 -74.3614 283° West 143 165 8,000 -231 Descending Boston Center
Fri 10:10:38 PM 42.8203 -74.3736 284° West 143 165 8,000 130 Level Boston Center
Fri 10:11:12 PM 42.8261 -74.4022 286° West 143 165 8,100  Climbing Boston Center
Fri 10:11:39 PM 42.8294 -74.4253 281° West 142 163 8,000 -97 Descending Boston Center
Fri 10:12:14 PM 42.8353 -74.4539 286° West 143 165 8,000  Level Boston Center
Fri 10:12:38 PM 42.8403 -74.4778 286° West 143 165 8,000  Level Boston Center
Fri 10:13:15 PM 42.8458 -74.5117 283° West 143 165 8,000 -98 Level Boston Center
Fri 10:13:39 PM 42.8489 -74.5322 281° West 144 166 7,900  Descending Boston Center
Fri 10:14:13 PM 42.8547 -74.5619 285° West 139 160 8,000 98 Climbing Boston Center
Fri 10:14:40 PM 42.8583 -74.5814 284° West 134 154 8,000  Level Boston Center
Fri 10:15:15 PM 42.8631 -74.6122 282° West 137 158 8,000  Level Boston Center
Fri 10:15:41 PM 42.8653 -74.6325 279° West 138 159 8,000  Level Boston Center
Fri 10:16:17 PM 42.8714 -74.6636 285° West 137 158 8,000  Level Boston Center
Fri 10:16:42 PM 42.8758 -74.6878 284° West 138 159 8,000  Level Boston Center
Fri 10:17:15 PM 42.8806 -74.7139 284° West 137 158 8,000  Level Boston Center
Fri 10:17:43 PM 42.8853 -74.7367 286° West 138 159 8,000  Level Boston Center
Fri 10:18:16 PM 42.8881 -74.7642 278° West 137 158 8,000  Level Boston Center
Fri 10:18:41 PM 42.8919 -74.7881 283° West 136 157 8,000  Level Boston Center
Fri 10:19:18 PM 42.8961 -74.8086 285° West 137 158 8,000  Level Boston Center
Fri 10:19:43 PM 42.9008 -74.8400 282° West 138 159 8,000  Level Boston Center
Fri 10:20:20 PM 42.9058 -74.8583 290° West 137 158 8,000  Level Boston Center
Fri 10:20:44 PM 42.9103 -74.8889 281° West 136 157 8,000  Level Boston Center
Fri 10:21:20 PM 42.9136 -74.9081 283° West 137 158 8,000  Level Boston Center
Fri 10:21:45 PM 42.9194 -74.9381 285° West 132 152 8,000  Level Boston Center
Fri 10:22:21 PM 42.9222 -74.9572 281° West 135 155 8,000  Level Boston Center
Fri 10:22:45 PM 42.9267 -74.9867 282° West 134 154 8,000  Level Boston Center
Fri 10:23:22 PM 42.9319 -75.0164 284° West 135 155 8,000  Level Boston Center
Fri 10:23:46 PM 42.9358 -75.0358 285° West 133 153 8,000  Level Boston Center
Fri 10:24:20 PM 42.9411 -75.0653 284° West 134 154 8,000  Level Boston Center
Fri 10:24:47 PM 42.9442 -75.0906 279° West 138 159 8,000 -100 Level Boston Center
Fri 10:25:20 PM 42.9503 -75.1189 286° West 140 161 7,900 -492 Descending Boston Center
Fri 10:25:48 PM 42.9550 -75.1431 285° West 150 173 7,500 -818 Descending Boston Center
Fri 10:26:26 PM 42.9592 -75.1731 281° West 144 166 7,000 -915 Descending Boston Center
Fri 10:26:47 PM 42.9617 -75.1944 279° West 144 166 6,600 -931 Descending Boston Center
Fri 10:27:24 PM 42.9664 -75.2178 285° West 131 151 6,100 -787 Descending Boston Center
Fri 10:27:48 PM 42.9694 -75.2375 282° West 108 124 5,800 -590 Descending Boston Center
Fri 10:28:25 PM 42.9714 -75.2608 277° West 117 135 5,500 -689 Descending Boston Center
Fri 10:28:49 PM 42.9756 -75.2800 287° West 112 129 5,100 -689 Descending Boston Center
Fri 10:29:26 PM 42.9786 -75.3047 280° West 118 136 4,800 -590 Descending Boston Center
Fri 10:29:50 PM 42.9831 -75.3258 286° West 125 144 4,500 -700 Descending Boston Center
Fri 10:30:26 PM 42.9869 -75.3503 282° West 118 136 4,100 -364 Descending Boston Center
Fri 10:30:56 PM 42.9919 -75.3750 285° West 127 146 4,100  Level Boston Center
Fri 10:31:27 PM 42.9950 -75.3969 281° West 120 138 4,100  Level Boston Center
Fri 10:31:57 PM 42.9975 -75.4203 278° West 118 136 4,100  Level Boston Center
Fri 10:32:28 PM 43.0025 -75.4417 288° West 123 142 4,100  Level Boston Center
Fri 10:32:58 PM 43.0069 -75.4669 284° West 114 131 4,100  Level Boston Center
Fri 10:33:28 PM 43.0089 -75.4800 282° West 115 132 4,100  Level Boston Center
Fri 10:33:59 PM 43.0128 -75.5094 280° West 115 132 4,100  Level Boston Center
Fri 10:34:29 PM 43.0164 -75.5250 288° West 115 132 4,100  Level Boston Center
Fri 10:34:59 PM 43.0206 -75.5525 282° West 118 136 4,100  Level Boston Center
Fri 10:35:30 PM 43.0239 -75.5694 285° West 115 132 4,100  Level Boston Center
Fri 10:36:00 PM 43.0286 -75.5956 284° West 119 137 4,100  Level Boston Center
Fri 10:36:28 PM 43.0308 -75.6119 281° West 115 132 4,100  Level Boston Center
Fri 10:37:01 PM 43.0342 -75.6381 280° West 116 133 4,100  Level Boston Center
Fri 10:37:29 PM 43.0367 -75.6528 283° West 115 132 4,100  Level Boston Center
Fri 10:37:59 PM 43.0400 -75.6808 279° West 117 135 4,100  Level Boston Center
Fri 10:38:29 PM 43.0425 -75.6983 281° West 115 132 4,100  Level Boston Center
Fri 10:39:00 PM 43.0378 -75.7208 254° West 107 123 4,100  Level Boston Center
Fri 10:39:30 PM 43.0406 -75.7408 281° West 115 132 4,100  Level Boston Center
Fri 10:39:55 PM 43.0358 -75.7581 249° West 108 124 4,100  Level Boston Center
Fri 10:40:33 PM 43.0358 -75.7806 270° West 113 130 4,100  Level Boston Center
Fri 10:40:57 PM 43.0325 -75.8036 259° West 118 136 4,100  Level Boston Center
Fri 10:41:34 PM 43.0317 -75.8233 267° West 113 130 4,100  Level Boston Center
Fri 10:41:58 PM 43.0292 -75.8492 262° West 118 136 4,100  Level Boston Center
Fri 10:42:34 PM 43.0294 -75.8681 271° West 113 130 4,100  Level Boston Center
Fri 10:42:58 PM 43.0278 -75.8956 265° West 115 132 4,100 -98 Level Boston Center
Fri 10:43:35 PM 43.0289 -75.9122 275° West 113 130 4,000 -98 Descending Boston Center
Fri 10:43:59 PM 43.0311 -75.9400 276° West 119 137 4,000 -400 Level Boston Center
Fri 10:44:35 PM 43.0339 -75.9575 282° West 114 131 3,600 -800 Descending Boston Center
Fri 10:44:59 PM 43.0519 -75.9817 316° Northwest 159 183 3,200 -968 Descending Boston Center
Fri 10:45:37 PM 43.0706 -75.9906 341° North 148 170 2,600 -968 Descending Boston Center
Fri 10:46:01 PM 43.0947 -76.0067 334° Northwest 173 199 2,200 -1,300 Descending Boston Center
Fri 10:46:37 PM 43.1103 -76.0344 307° West 164 189 1,300 -1,000 Descending Boston Center
Fri 10:47:01 PM 43.1100 -76.0553 269° West 141 162 1,200 -700 Descending Boston Center
Fri 10:47:37 PM 43.1097 -76.0858 269° West 145 167 600 -1,000 Descending Boston Center
Fri 10:49:00 PM 43.1000 -76.1000 270° West  Level FlightAware Approximate
Fri 10:56:00 PM 43.1112 -76.1063 270° West  Level Estimated
Fri 10:57:00 PM 43.1112 -76.1063 158° South  Level Estimated
Fri 10:58:00 PM 43.1112 -76.1063 270° West  Level Estimated
Fri 10:59:00 PM 43.1112 -76.1063 158° South  Level Estimated
Fri 11:00:00 PM 43.1112 -76.1063 270° West  Level Estimated

Login

Don't have an account? Register now (free) for customized features, flight alerts, and more!